Time;durP1;ratioP1;P1;durP2;ratioP2;P2;SDS_P1;SDS_P2;PMS_P1;PMS_P2;Temp;Humidity;BMP_temperature;BMP_pressure;BME280_temperature;BME280_humidity;BME280_pressure;Samples;Min_cycle;Max_cycle;Signal;HPM_P1;HPM_P2
2021/11/11 00:00:40;;;;;;;18.88;10.88;;;;;;;;;;6226062;28;20136;-64
2021/11/11 00:03:41;;;;;;;17.20;11.80;;;;;;;;;;6222731;28;20520;-64
2021/11/11 00:06:43;;;;;;;20.88;11.07;;;;;;;;;;6219390;28;20095;-65
2021/11/11 00:09:44;;;;;;;18.13;11.57;;;;;;;;;;6228828;28;20054;-65
2021/11/11 00:12:46;;;;;;;20.65;12.10;;;;;;;;;;6213921;28;20072;-65
2021/11/11 00:15:49;;;;;;;17.42;11.73;;;;;;;;;;6206016;28;20504;-65
2021/11/11 00:18:51;;;;;;;20.45;12.07;;;;;;;;;;6222641;28;20218;-65
2021/11/11 00:21:52;;;;;;;17.25;11.20;;;;;;;;;;6219416;28;20572;-64
2021/11/11 00:24:54;;;;;;;21.00;12.70;;;;;;;;;;6226336;28;20053;-64
2021/11/11 00:27:55;;;;;;;16.80;12.30;;;;;;;;;;6212318;28;20054;-65
2021/11/11 00:30:58;;;;;;;18.77;12.48;;;;;;;;;;6213699;28;20046;-65
2021/11/11 00:33:59;;;;;;;17.40;11.73;;;;;;;;;;6217552;28;20056;-64
2021/11/11 00:37:01;;;;;;;17.58;11.57;;;;;;;;;;6213468;28;20049;-67
2021/11/11 00:40:02;;;;;;;73.10;42.42;;;;;;;;;;6237283;28;20056;-67
2021/11/11 00:43:03;;;;;;;207.45;108.93;;;;;;;;;;6224593;28;20133;-67
2021/11/11 00:46:06;;;;;;;212.25;113.30;;;;;;;;;;6219668;28;20083;-67
2021/11/11 00:49:08;;;;;;;136.90;76.20;;;;;;;;;;6233822;28;20110;-66
2021/11/11 00:52:09;;;;;;;36.67;21.70;;;;;;;;;;6231215;28;20489;-64
2021/11/11 00:55:11;;;;;;;19.33;13.00;;;;;;;;;;6235804;28;20055;-65
2021/11/11 00:58:12;;;;;;;21.45;12.32;;;;;;;;;;6235973;28;20060;-64
2021/11/11 01:01:15;;;;;;;20.80;12.75;;;;;;;;;;6233536;28;20057;-64
2021/11/11 01:04:16;;;;;;;20.60;13.00;;;;;;;;;;6241475;28;20496;-65
2021/11/11 01:07:18;;;;;;;20.27;13.70;;;;;;;;;;6223021;28;20049;-65
2021/11/11 01:10:20;;;;;;;17.63;13.25;;;;;;;;;;6223386;28;20056;-65
2021/11/11 01:13:21;;;;;;;19.42;12.68;;;;;;;;;;6227404;28;20196;-65
2021/11/11 01:16:24;;;;;;;18.50;13.25;;;;;;;;;;6211257;28;20045;-64
2021/11/11 01:19:26;;;;;;;18.80;12.90;;;;;;;;;;6222669;28;20052;-65
2021/11/11 01:22:27;;;;;;;20.00;13.35;;;;;;;;;;6228334;28;20128;-65
2021/11/11 01:25:30;;;;;;;23.02;14.35;;;;;;;;;;6238625;28;20029;-64
2021/11/11 01:28:32;;;;;;;18.10;12.82;;;;;;;;;;6228311;28;20184;-65
2021/11/11 01:31:34;;;;;;;20.75;13.73;;;;;;;;;;6211511;28;20184;-65
2021/11/11 01:34:36;;;;;;;22.73;13.15;;;;;;;;;;6227266;28;20090;-65
2021/11/11 01:37:38;;;;;;;24.55;13.90;;;;;;;;;;6217660;28;20056;-64
2021/11/11 01:40:39;;;;;;;20.38;13.38;;;;;;;;;;6219546;28;20535;-65
2021/11/11 01:43:40;;;;;;;18.58;12.77;;;;;;;;;;6226531;28;20037;-65
2021/11/11 01:46:43;;;;;;;21.70;13.35;;;;;;;;;;6203163;28;20053;-64
2021/11/11 01:49:45;;;;;;;19.55;12.90;;;;;;;;;;6228328;28;20038;-65
2021/11/11 01:52:46;;;;;;;19.42;12.77;;;;;;;;;;6230919;28;20498;-64
2021/11/11 01:55:49;;;;;;;19.67;13.10;;;;;;;;;;6234591;28;20127;-65
2021/11/11 01:58:50;;;;;;;21.65;12.52;;;;;;;;;;6238014;28;20061;-64
2021/11/11 02:01:53;;;;;;;20.98;12.45;;;;;;;;;;6208041;28;20100;-65
2021/11/11 02:04:55;;;;;;;21.33;12.90;;;;;;;;;;6223974;28;20708;-64
2021/11/11 02:07:56;;;;;;;18.48;12.57;;;;;;;;;;6215706;28;20049;-65
2021/11/11 02:10:58;;;;;;;20.17;12.73;;;;;;;;;;6211708;28;20069;-65
2021/11/11 02:13:59;;;;;;;18.60;12.88;;;;;;;;;;6226734;28;20137;-65
2021/11/11 02:17:02;;;;;;;21.33;13.05;;;;;;;;;;6222152;28;20456;-65
2021/11/11 02:20:06;;;;;;;17.63;12.43;;;;;;;;;;6229193;28;20048;-65
2021/11/11 02:23:10;;;;;;;18.25;13.48;;;;;;;;;;6224407;28;20084;-65
2021/11/11 02:26:12;;;;;;;26.35;12.65;;;;;;;;;;6228655;28;20041;-65
2021/11/11 02:29:13;;;;;;;18.52;12.98;;;;;;;;;;6238460;28;20133;-65
2021/11/11 02:32:16;;;;;;;19.42;13.27;;;;;;;;;;6222801;28;20132;-66
2021/11/11 02:35:19;;;;;;;21.20;12.85;;;;;;;;;;6237782;28;20292;-66
2021/11/11 02:38:21;;;;;;;21.08;13.80;;;;;;;;;;6242603;28;20102;-65
2021/11/11 02:41:22;;;;;;;19.90;14.02;;;;;;;;;;6230393;28;20476;-65
2021/11/11 02:44:24;;;;;;;21.08;13.90;;;;;;;;;;6243701;28;20041;-65
2021/11/11 02:47:25;;;;;;;21.75;13.60;;;;;;;;;;6220767;28;20140;-66
2021/11/11 02:50:29;;;;;;;19.85;13.20;;;;;;;;;;6233070;28;20127;-65
2021/11/11 02:53:30;;;;;;;21.98;13.32;;;;;;;;;;6244584;28;20098;-65
2021/11/11 02:56:32;;;;;;;21.83;13.68;;;;;;;;;;6228055;28;20041;-65
2021/11/11 02:59:33;;;;;;;21.13;13.88;;;;;;;;;;6248745;28;20041;-64
2021/11/11 03:02:35;;;;;;;21.42;14.15;;;;;;;;;;6204891;28;20103;-65
2021/11/11 03:05:39;;;;;;;24.60;14.32;;;;;;;;;;6213110;28;20129;-65
2021/11/11 03:08:40;;;;;;;29.48;14.93;;;;;;;;;;6220104;28;20061;-65
2021/11/11 03:11:41;;;;;;;20.45;13.10;;;;;;;;;;6214216;28;20061;-65
2021/11/11 03:14:43;;;;;;;20.70;13.30;;;;;;;;;;6222586;28;20042;-65
2021/11/11 03:17:45;;;;;;;21.45;14.20;;;;;;;;;;6226941;28;20049;-65
2021/11/11 03:20:48;;;;;;;22.63;13.65;;;;;;;;;;6216572;28;20053;-65
2021/11/11 03:23:49;;;;;;;22.07;13.13;;;;;;;;;;6224550;28;20490;-65
2021/11/11 03:26:51;;;;;;;20.67;13.73;;;;;;;;;;6211368;28;20048;-65
2021/11/11 03:29:53;;;;;;;21.35;13.60;;;;;;;;;;6234107;28;20215;-65
2021/11/11 03:32:56;;;;;;;19.92;13.50;;;;;;;;;;6215521;28;20055;-65
2021/11/11 03:35:58;;;;;;;18.05;13.45;;;;;;;;;;6215678;28;20115;-65
2021/11/11 03:39:00;;;;;;;22.88;14.43;;;;;;;;;;6225660;28;20099;-65
2021/11/11 03:42:01;;;;;;;21.05;12.68;;;;;;;;;;6215833;28;20037;-65
2021/11/11 03:45:03;;;;;;;21.35;13.63;;;;;;;;;;6228842;28;20095;-65
2021/11/11 03:48:05;;;;;;;19.85;13.10;;;;;;;;;;6212426;28;20150;-65
2021/11/11 03:51:08;;;;;;;19.52;13.27;;;;;;;;;;6222156;28;20050;-65
2021/11/11 03:54:11;;;;;;;20.83;13.10;;;;;;;;;;6231583;28;20114;-65
2021/11/11 03:57:13;;;;;;;22.23;14.13;;;;;;;;;;6216439;28;20046;-64
2021/11/11 04:00:16;;;;;;;21.42;13.02;;;;;;;;;;6220137;28;20184;-65
2021/11/11 04:03:17;;;;;;;22.73;14.52;;;;;;;;;;6219397;28;20046;-65
2021/11/11 04:06:20;;;;;;;19.77;13.68;;;;;;;;;;6214817;28;20180;-65
2021/11/11 04:09:21;;;;;;;21.15;13.90;;;;;;;;;;6228566;28;20553;-65
2021/11/11 04:12:23;;;;;;;21.70;13.52;;;;;;;;;;6215288;28;20758;-65
2021/11/11 04:15:24;;;;;;;18.60;13.65;;;;;;;;;;6212851;28;20041;-65
2021/11/11 04:18:25;;;;;;;21.15;14.35;;;;;;;;;;6216928;28;20389;-65
2021/11/11 04:21:28;;;;;;;22.67;14.82;;;;;;;;;;6214361;28;20050;-64
2021/11/11 04:24:30;;;;;;;20.77;14.15;;;;;;;;;;6244051;28;20045;-65
2021/11/11 04:27:33;;;;;;;23.52;15.05;;;;;;;;;;6220901;28;20535;-65
2021/11/11 04:30:36;;;;;;;19.48;14.48;;;;;;;;;;6214048;28;20920;-65
2021/11/11 04:33:41;;;;;;;25.55;14.85;;;;;;;;;;6224640;28;20070;-65
2021/11/11 04:43:39;;;;;;;20.83;13.48;;;;;;;;;;6224399;28;20074;-65
2021/11/11 04:47:07;;;;;;;21.80;14.75;;;;;;;;;;6218990;28;20057;-65
2021/11/11 04:50:38;;;;;;;27.15;14.05;;;;;;;;;;6228363;28;20049;-65
2021/11/11 05:03:38;;;;;;;23.92;15.20;;;;;;;;;;6219185;28;20103;-65
2021/11/11 05:06:39;;;;;;;19.88;14.30;;;;;;;;;;6211047;28;20045;-65
2021/11/11 05:09:42;;;;;;;23.73;14.80;;;;;;;;;;6226064;28;20050;-65
2021/11/11 05:12:43;;;;;;;20.23;14.40;;;;;;;;;;6214306;28;20049;-65
2021/11/11 05:15:45;;;;;;;20.05;14.07;;;;;;;;;;6217136;28;20568;-65
2021/11/11 05:18:46;;;;;;;22.10;13.90;;;;;;;;;;6220669;28;20608;-65
2021/11/11 05:21:48;;;;;;;20.05;13.80;;;;;;;;;;6214858;28;20204;-65
2021/11/11 05:24:51;;;;;;;21.20;13.85;;;;;;;;;;6224494;28;20107;-65
2021/11/11 05:27:52;;;;;;;22.93;13.43;;;;;;;;;;6219976;28;20369;-65
2021/11/11 05:30:54;;;;;;;20.55;12.55;;;;;;;;;;6221372;28;20626;-65
2021/11/11 05:33:55;;;;;;;19.92;13.15;;;;;;;;;;6220534;28;20103;-65
2021/11/11 05:36:56;;;;;;;18.75;13.30;;;;;;;;;;6214154;28;20042;-65
2021/11/11 05:39:59;;;;;;;16.05;12.80;;;;;;;;;;6230103;28;20478;-65
2021/11/11 05:43:01;;;;;;;19.88;13.43;;;;;;;;;;6218811;28;20053;-65
2021/11/11 05:46:02;;;;;;;17.90;13.80;;;;;;;;;;6214861;28;20050;-65
2021/11/11 05:49:03;;;;;;;21.38;13.43;;;;;;;;;;6228657;28;20477;-65
2021/11/11 05:52:05;;;;;;;19.83;13.43;;;;;;;;;;6218209;28;20041;-65
2021/11/11 05:55:09;;;;;;;22.08;14.43;;;;;;;;;;6241678;28;20139;-66
2021/11/11 05:58:10;;;;;;;21.88;14.75;;;;;;;;;;6219719;28;20061;-65
2021/11/11 06:01:11;;;;;;;24.60;14.27;;;;;;;;;;6212602;28;20509;-65
2021/11/11 06:04:13;;;;;;;18.50;13.77;;;;;;;;;;6236368;28;20612;-65
2021/11/11 06:07:15;;;;;;;20.52;14.68;;;;;;;;;;6217566;28;20148;-65
2021/11/11 06:10:17;;;;;;;24.50;15.32;;;;;;;;;;6219939;28;20057;-66
2021/11/11 06:13:19;;;;;;;23.95;14.70;;;;;;;;;;6224852;28;20042;-65
2021/11/11 06:16:21;;;;;;;23.77;15.48;;;;;;;;;;6215804;28;20460;-65
2021/11/11 06:19:23;;;;;;;23.77;15.40;;;;;;;;;;6226843;28;20572;-65
2021/11/11 06:22:24;;;;;;;19.90;15.32;;;;;;;;;;6219655;28;20444;-66
2021/11/11 06:25:27;;;;;;;22.67;15.55;;;;;;;;;;6224307;28;20119;-65
2021/11/11 06:28:29;;;;;;;26.55;16.45;;;;;;;;;;6228605;28;20054;-65
2021/11/11 06:31:30;;;;;;;21.02;15.10;;;;;;;;;;6211331;28;20053;-64
2021/11/11 06:34:32;;;;;;;24.95;15.48;;;;;;;;;;6227830;28;20057;-64
2021/11/11 06:37:33;;;;;;;26.25;15.73;;;;;;;;;;6221579;28;20473;-66
2021/11/11 06:40:36;;;;;;;22.95;15.20;;;;;;;;;;6221215;28;20985;-66
2021/11/11 06:43:37;;;;;;;26.85;16.00;;;;;;;;;;6225651;28;20100;-66
2021/11/11 06:46:39;;;;;;;27.83;15.75;;;;;;;;;;6218891;28;20045;-65
2021/11/11 06:49:40;;;;;;;21.85;14.27;;;;;;;;;;6229932;28;20045;-65
2021/11/11 06:52:42;;;;;;;20.05;14.45;;;;;;;;;;6221686;28;20948;-65
2021/11/11 06:55:46;;;;;;;22.65;15.20;;;;;;;;;;6221870;28;20064;-65
2021/11/11 06:58:47;;;;;;;23.85;14.55;;;;;;;;;;6232719;28;20550;-65
2021/11/11 07:01:49;;;;;;;22.80;15.57;;;;;;;;;;6218775;28;20064;-66
2021/11/11 07:04:50;;;;;;;21.25;15.38;;;;;;;;;;6232953;28;20099;-65
2021/11/11 07:07:51;;;;;;;23.15;14.90;;;;;;;;;;6217701;28;20050;-65
2021/11/11 07:10:55;;;;;;;23.70;15.20;;;;;;;;;;6227505;28;20060;-65
2021/11/11 07:13:56;;;;;;;24.57;15.70;;;;;;;;;;6230671;28;20061;-65
2021/11/11 07:16:58;;;;;;;19.40;14.35;;;;;;;;;;6222891;28;20037;-65
2021/11/11 07:19:59;;;;;;;22.05;15.75;;;;;;;;;;6226038;28;20386;-66
2021/11/11 07:23:03;;;;;;;23.80;14.77;;;;;;;;;;6227178;28;20139;-65
2021/11/11 07:26:05;;;;;;;24.92;14.07;;;;;;;;;;6219435;28;20045;-66
2021/11/11 07:29:07;;;;;;;23.15;14.93;;;;;;;;;;6222337;28;20046;-66
2021/11/11 07:32:08;;;;;;;24.92;15.77;;;;;;;;;;6206022;28;20136;-66
2021/11/11 07:35:10;;;;;;;24.13;15.38;;;;;;;;;;6213600;28;20096;-66
2021/11/11 07:38:12;;;;;;;21.70;15.52;;;;;;;;;;6222979;28;20602;-66
2021/11/11 07:41:15;;;;;;;23.05;15.10;;;;;;;;;;6219535;28;20127;-66
2021/11/11 07:44:16;;;;;;;24.42;15.30;;;;;;;;;;6235559;28;20104;-66
2021/11/11 07:47:26;;;;;;;21.60;14.52;;;;;;;;;;6209435;28;20048;-67
2021/11/11 07:50:28;;;;;;;25.55;14.93;;;;;;;;;;6215071;28;20128;-66
2021/11/11 07:53:29;;;;;;;24.17;15.20;;;;;;;;;;6220716;28;20563;-66
2021/11/11 07:56:32;;;;;;;20.83;14.32;;;;;;;;;;6207740;28;20061;-67
2021/11/11 07:59:34;;;;;;;21.00;14.20;;;;;;;;;;6227808;28;20118;-67
2021/11/11 08:02:36;;;;;;;22.15;14.18;;;;;;;;;;6203620;28;20042;-67
2021/11/11 08:05:39;;;;;;;27.77;15.88;;;;;;;;;;6213691;28;20810;-67
2021/11/11 08:08:41;;;;;;;20.47;14.83;;;;;;;;;;6220244;28;20673;-67
2021/11/11 08:11:44;;;;;;;25.75;15.73;;;;;;;;;;6213848;28;20042;-66
2021/11/11 08:14:45;;;;;;;24.90;16.00;;;;;;;;;;6219247;28;20042;-66
2021/11/11 08:17:47;;;;;;;23.98;16.60;;;;;;;;;;6208675;28;20136;-66
2021/11/11 08:20:49;;;;;;;27.35;16.83;;;;;;;;;;6213665;28;20045;-66
2021/11/11 08:23:51;;;;;;;26.15;17.23;;;;;;;;;;6219116;28;20045;-66
2021/11/11 08:26:53;;;;;;;23.25;16.48;;;;;;;;;;6213500;28;20091;-66
2021/11/11 08:29:55;;;;;;;24.67;15.98;;;;;;;;;;6228484;28;20045;-66
2021/11/11 08:32:56;;;;;;;20.83;15.63;;;;;;;;;;6204485;28;20118;-67
2021/11/11 08:35:58;;;;;;;25.40;15.77;;;;;;;;;;6212341;28;20046;-67
2021/11/11 08:38:59;;;;;;;22.92;16.55;;;;;;;;;;6222118;28;20133;-66
2021/11/11 08:42:02;;;;;;;23.65;15.98;;;;;;;;;;6218506;28;20053;-66
2021/11/11 08:45:05;;;;;;;25.05;14.80;;;;;;;;;;6227144;28;20136;-66
2021/11/11 08:48:06;;;;;;;25.13;15.70;;;;;;;;;;6205631;28;20038;-67
2021/11/11 08:51:08;;;;;;;32.25;16.75;;;;;;;;;;6229178;28;20061;-67
2021/11/11 08:54:10;;;;;;;23.98;15.50;;;;;;;;;;6229933;28;20484;-66
2021/11/11 08:57:13;;;;;;;22.92;14.95;;;;;;;;;;6225130;28;20053;-66
2021/11/11 09:00:16;;;;;;;23.57;16.00;;;;;;;;;;6230611;28;20413;-68
2021/11/11 09:03:18;;;;;;;26.08;15.40;;;;;;;;;;6216542;28;20102;-68
2021/11/11 09:06:20;;;;;;;26.00;17.13;;;;;;;;;;6220839;28;20532;-65
2021/11/11 09:09:21;;;;;;;23.00;15.73;;;;;;;;;;6232008;28;20122;-66
2021/11/11 09:12:24;;;;;;;23.33;16.45;;;;;;;;;;6218047;28;20874;-66
2021/11/11 09:15:26;;;;;;;25.60;15.02;;;;;;;;;;6218756;28;20697;-67
2021/11/11 09:18:28;;;;;;;21.05;15.40;;;;;;;;;;6214031;28;20048;-67
2021/11/11 09:21:29;;;;;;;23.90;15.52;;;;;;;;;;6218195;28;20577;-67
2021/11/11 09:24:31;;;;;;;25.60;15.43;;;;;;;;;;6224296;28;20064;-66
2021/11/11 09:27:34;;;;;;;22.75;15.20;;;;;;;;;;6218857;28;20079;-66
2021/11/11 09:30:37;;;;;;;25.90;16.35;;;;;;;;;;6215057;28;20187;-66
2021/11/11 09:33:39;;;;;;;26.90;16.98;;;;;;;;;;6223299;28;20029;-67
2021/11/11 09:36:40;;;;;;;26.38;15.52;;;;;;;;;;6217312;28;20120;-68
2021/11/11 09:39:42;;;;;;;25.00;16.17;;;;;;;;;;6226858;28;20418;-67
2021/11/11 09:42:45;;;;;;;21.23;15.88;;;;;;;;;;6221561;28;20046;-66
2021/11/11 09:45:47;;;;;;;27.93;17.70;;;;;;;;;;6213867;28;20473;-67
2021/11/11 09:48:49;;;;;;;29.38;16.55;;;;;;;;;;6239118;28;20085;-67
2021/11/11 09:51:51;;;;;;;24.17;15.98;;;;;;;;;;6218293;28;20045;-66
2021/11/11 10:01:32;;;;;;;21.48;17.13;;;;;;;;;;6213615;28;20218;-67
2021/11/11 10:04:34;;;;;;;23.75;16.02;;;;;;;;;;6224031;28;20133;-67
2021/11/11 10:07:35;;;;;;;23.52;16.08;;;;;;;;;;6218592;28;20176;-66
2021/11/11 10:10:38;;;;;;;22.85;15.45;;;;;;;;;;6216055;28;20053;-67
2021/11/11 10:13:41;;;;;;;28.47;16.23;;;;;;;;;;6229907;28;20038;-65
2021/11/11 10:16:44;;;;;;;23.33;14.50;;;;;;;;;;6205393;28;20060;-65
2021/11/11 10:19:46;;;;;;;21.92;16.67;;;;;;;;;;6222317;28;20197;-67
2021/11/11 10:26:39;;;;;;;24.27;17.55;;;;;;;;;;6205079;28;20050;-66
2021/11/11 10:32:53;;;;;;;25.85;16.60;;;;;;;;;;7121524;22;20078;-66
2021/11/11 10:39:15;;;;;;;24.58;17.27;;;;;;;;;;6371218;23;20049;-66
2021/11/11 10:42:18;;;;;;;24.63;17.70;;;;;;;;;;6205263;28;20045;-66
2021/11/11 10:45:21;;;;;;;21.80;17.50;;;;;;;;;;6205315;28;20511;-66
2021/11/11 10:48:23;;;;;;;;;;;;;;;;;;6211621;28;20550;-66
2021/11/11 10:51:29;;;;;;;22.65;18.13;;;;;;;;;;6207284;28;19925;-66
2021/11/11 10:54:30;;;;;;;23.15;16.77;;;;;;;;;;6216521;28;20095;-66
2021/11/11 10:57:33;;;;;;;25.33;18.20;;;;;;;;;;6206112;28;20070;-65
2021/11/11 11:00:53;;;;;;;22.23;17.05;;;;;;;;;;6206753;28;20049;-66
2021/11/11 11:03:57;;;;;;;22.98;16.20;;;;;;;;;;6207191;28;20049;-67
2021/11/11 11:07:17;;;;;;;23.13;16.33;;;;;;;;;;6187056;28;20041;-66
2021/11/11 11:10:20;;;;;;;21.88;17.13;;;;;;;;;;6200557;28;20587;-66
2021/11/11 11:13:23;;;;;;;25.48;16.38;;;;;;;;;;6208251;28;20056;-66
2021/11/11 11:16:25;;;;;;;19.70;15.90;;;;;;;;;;6194570;28;20054;-66
2021/11/11 11:19:27;;;;;;;21.02;16.40;;;;;;;;;;6208743;28;20050;-66
2021/11/11 11:22:29;;;;;;;23.98;16.05;;;;;;;;;;6199018;28;20045;-67
2021/11/11 11:25:32;;;;;;;20.10;15.48;;;;;;;;;;6199450;28;20747;-67
2021/11/11 11:28:36;;;;;;;20.10;15.68;;;;;;;;;;6208485;28;20088;-67
2021/11/11 11:31:42;;;;;;;;;;;;;;;;;;6191972;28;20125;-66
2021/11/11 11:34:46;;;;;;;24.65;15.40;;;;;;;;;;6205297;28;20360;-66
2021/11/11 11:37:47;;;;;;;23.00;14.70;;;;;;;;;;6195160;28;20058;-66
2021/11/11 11:40:50;;;;;;;23.75;15.20;;;;;;;;;;6197378;28;22710;-66
2021/11/11 11:43:51;;;;;;;22.02;15.25;;;;;;;;;;6206724;28;20052;-66
2021/11/11 11:46:59;;;;;;;24.73;15.73;;;;;;;;;;6189609;28;20052;-67
2021/11/11 11:50:03;;;;;;;24.77;15.70;;;;;;;;;;6204273;28;20057;-66
2021/11/11 11:53:06;;;;;;;23.00;15.63;;;;;;;;;;6193338;28;20055;-67
2021/11/11 11:56:14;;;;;;;22.52;16.58;;;;;;;;;;6197356;28;20057;-67
2021/11/11 11:59:18;;;;;;;23.02;16.48;;;;;;;;;;6206869;28;20042;-66
2021/11/11 12:02:32;;;;;;;24.70;16.90;;;;;;;;;;6188709;28;20053;-67
2021/11/11 12:05:50;;;;;;;33.17;17.47;;;;;;;;;;6192392;28;20049;-66
2021/11/11 12:09:10;;;;;;;24.65;17.60;;;;;;;;;;6206336;28;20528;-66
2021/11/11 12:12:41;;;;;;;24.30;17.95;;;;;;;;;;6196292;28;20515;-66
2021/11/11 12:15:56;;;;;;;28.83;18.10;;;;;;;;;;6193674;28;20053;-68
2021/11/11 12:29:25;;;;;;;24.17;17.77;;;;;;;;;;6211723;28;20106;-66
2021/11/11 12:39:49;;;;;;;27.80;17.98;;;;;;;;;;6161265;28;20047;-67
2021/11/11 12:42:54;;;;;;;24.92;18.08;;;;;;;;;;6153849;28;20077;-67
2021/11/11 12:45:57;;;;;;;21.88;17.02;;;;;;;;;;6149807;28;20042;-67
2021/11/11 12:49:13;;;;;;;24.65;17.70;;;;;;;;;;6159627;28;20089;-66
2021/11/11 12:52:22;;;;;;;24.35;17.58;;;;;;;;;;6151270;28;20082;-65
2021/11/11 12:55:27;;;;;;;29.52;18.10;;;;;;;;;;6152480;28;20193;-65
2021/11/11 12:58:31;;;;;;;25.02;18.73;;;;;;;;;;6154230;28;20043;-66
2021/11/11 13:01:37;;;;;;;25.50;18.23;;;;;;;;;;6147084;28;21358;-65
2021/11/11 13:04:46;;;;;;;25.80;18.65;;;;;;;;;;6159574;28;20575;-66
2021/11/11 13:07:52;;;;;;;26.85;19.50;;;;;;;;;;6150955;28;20062;-65
2021/11/11 13:10:55;;;;;;;28.85;19.70;;;;;;;;;;6154172;28;20070;-66
2021/11/11 13:14:09;;;;;;;27.23;18.95;;;;;;;;;;6166540;28;20039;-66
2021/11/11 13:17:13;;;;;;;26.67;19.48;;;;;;;;;;6147907;28;20490;-67
2021/11/11 13:20:20;;;;;;;29.42;20.15;;;;;;;;;;6153955;28;20903;-67
2021/11/11 13:23:28;;;;;;;25.35;19.63;;;;;;;;;;6160580;28;20706;-67
2021/11/11 13:26:50;;;;;;;27.98;19.13;;;;;;;;;;6154450;28;20055;-68
2021/11/11 14:00:53;;;;;;;24.70;17.02;;;;;;;;;;6200329;28;20058;-67
2021/11/11 15:15:31;;;;;;;25.92;17.73;;;;;;;;;;6218666;28;20096;-66
2021/11/11 15:18:58;;;;;;;27.65;18.50;;;;;;;;;;6207639;28;20038;-66
2021/11/11 16:02:11;;;;;;;24.38;17.67;;;;;;;;;;6177417;28;20055;-66
2021/11/11 16:22:12;;;;;;;28.17;19.38;;;;;;;;;;6200020;28;20054;-66
2021/11/11 16:25:25;;;;;;;26.85;19.17;;;;;;;;;;6210359;28;20057;-66
2021/11/11 16:28:26;;;;;;;28.20;18.92;;;;;;;;;;6213229;28;20041;-66
2021/11/11 16:31:28;;;;;;;31.17;19.70;;;;;;;;;;6186652;28;20188;-66
2021/11/11 16:34:30;;;;;;;24.63;18.42;;;;;;;;;;6203831;28;20179;-66
2021/11/11 16:37:33;;;;;;;29.90;19.27;;;;;;;;;;6187356;28;20062;-66
2021/11/11 16:40:37;;;;;;;27.37;17.87;;;;;;;;;;6200672;28;20049;-66
2021/11/11 16:43:38;;;;;;;25.70;18.88;;;;;;;;;;6213795;28;20052;-65
2021/11/11 16:46:41;;;;;;;31.67;20.05;;;;;;;;;;6191746;28;20124;-66
2021/11/11 16:49:42;;;;;;;26.15;18.40;;;;;;;;;;6212282;28;20038;-66
2021/11/11 16:52:45;;;;;;;29.73;19.27;;;;;;;;;;6204278;28;20148;-66
2021/11/11 16:55:46;;;;;;;28.20;19.70;;;;;;;;;;6203715;28;20050;-66
2021/11/11 16:58:48;;;;;;;27.73;19.08;;;;;;;;;;6215325;28;20136;-66
2021/11/11 17:01:50;;;;;;;31.60;20.02;;;;;;;;;;6190495;28;20188;-65
2021/11/11 17:04:51;;;;;;;25.80;18.67;;;;;;;;;;6211630;28;20132;-66
2021/11/11 17:07:54;;;;;;;26.48;18.83;;;;;;;;;;6199399;28;20108;-65
2021/11/11 17:10:57;;;;;;;27.27;18.92;;;;;;;;;;6206258;28;20133;-65
2021/11/11 17:13:58;;;;;;;25.08;18.38;;;;;;;;;;6212418;28;20054;-66
2021/11/11 17:17:00;;;;;;;30.23;18.85;;;;;;;;;;6191835;28;20077;-66
2021/11/11 17:20:01;;;;;;;29.05;18.48;;;;;;;;;;6210189;28;20057;-66
2021/11/11 17:23:05;;;;;;;26.80;18.25;;;;;;;;;;6204080;28;20046;-65
2021/11/11 17:26:17;;;;;;;27.33;18.10;;;;;;;;;;6206517;28;20049;-66
2021/11/11 17:29:19;;;;;;;29.88;18.50;;;;;;;;;;6219864;28;20081;-66
2021/11/11 17:32:20;;;;;;;27.60;18.92;;;;;;;;;;6198096;28;20128;-65
2021/11/11 17:35:21;;;;;;;28.92;19.60;;;;;;;;;;6206694;28;20056;-67
2021/11/11 17:38:25;;;;;;;27.27;18.80;;;;;;;;;;6217678;28;20052;-66
2021/11/11 17:41:27;;;;;;;28.85;19.05;;;;;;;;;;6210215;28;20426;-66
2021/11/11 17:44:33;;;;;;;28.73;18.83;;;;;;;;;;6212612;28;20042;-65
2021/11/11 17:47:35;;;;;;;28.60;19.60;;;;;;;;;;6195761;28;20377;-66
2021/11/11 17:50:40;;;;;;;27.25;18.35;;;;;;;;;;6198207;28;20058;-66
2021/11/11 17:53:44;;;;;;;24.80;18.00;;;;;;;;;;6213001;28;20053;-66
2021/11/11 17:56:47;;;;;;;28.80;18.92;;;;;;;;;;6202140;28;20136;-65
2021/11/11 17:59:49;;;;;;;27.45;18.52;;;;;;;;;;6217158;28;20049;-66
2021/11/11 18:02:51;;;;;;;32.30;19.77;;;;;;;;;;6191814;28;20087;-65
2021/11/11 18:05:57;;;;;;;29.95;18.52;;;;;;;;;;6200712;28;20163;-65
2021/11/11 18:09:02;;;;;;;30.02;19.73;;;;;;;;;;6216910;28;20045;-66
2021/11/11 18:12:05;;;;;;;28.60;19.52;;;;;;;;;;6203618;28;20516;-66
2021/11/11 18:15:10;;;;;;;29.75;20.75;;;;;;;;;;6209691;28;20042;-66
2021/11/11 18:18:11;;;;;;;30.23;19.83;;;;;;;;;;6200642;28;20061;-66
2021/11/11 18:21:16;;;;;;;27.67;19.02;;;;;;;;;;6201150;28;20660;-66
2021/11/11 18:24:19;;;;;;;28.25;20.10;;;;;;;;;;6217669;28;20077;-66
2021/11/11 18:27:22;;;;;;;32.15;21.05;;;;;;;;;;6203376;28;20192;-66
2021/11/11 18:30:30;;;;;;;30.35;21.10;;;;;;;;;;6200966;28;20040;-66
2021/11/11 18:33:39;;;;;;;30.40;20.55;;;;;;;;;;6216178;28;20058;-65
2021/11/11 18:36:43;;;;;;;31.10;20.70;;;;;;;;;;6209506;28;20046;-66
2021/11/11 18:39:46;;;;;;;32.53;22.23;;;;;;;;;;6218104;28;20077;-66
2021/11/11 18:42:48;;;;;;;31.98;21.10;;;;;;;;;;6214851;28;20127;-66
2021/11/11 18:45:56;;;;;;;31.42;21.67;;;;;;;;;;6208548;28;20763;-66
2021/11/11 18:48:58;;;;;;;33.85;21.08;;;;;;;;;;6223172;28;20050;-66
2021/11/11 18:52:00;;;;;;;33.72;21.27;;;;;;;;;;6198662;28;20184;-67
2021/11/11 18:55:03;;;;;;;30.25;21.45;;;;;;;;;;6212330;28;20561;-66
2021/11/11 18:58:04;;;;;;;34.85;22.13;;;;;;;;;;6208482;28;20492;-66
2021/11/11 19:01:07;;;;;;;31.75;21.67;;;;;;;;;;6200865;28;20077;-67
2021/11/11 19:04:11;;;;;;;34.03;22.15;;;;;;;;;;6223348;28;20050;-66
2021/11/11 19:07:14;;;;;;;30.35;21.25;;;;;;;;;;6204371;28;20046;-66
2021/11/11 19:10:20;;;;;;;29.75;21.17;;;;;;;;;;6220059;28;20053;-67
2021/11/11 19:13:29;;;;;;;32.75;21.30;;;;;;;;;;6214429;28;20899;-67
2021/11/11 19:16:33;;;;;;;33.22;20.92;;;;;;;;;;6193492;28;20065;-67
2021/11/11 19:19:37;;;;;;;32.00;20.30;;;;;;;;;;6207950;28;20054;-67
2021/11/11 19:22:39;;;;;;;31.42;20.60;;;;;;;;;;6199970;28;20113;-67
2021/11/11 19:25:41;;;;;;;33.75;20.48;;;;;;;;;;6210307;28;20042;-67
2021/11/11 19:28:43;;;;;;;31.83;20.60;;;;;;;;;;6214314;28;20104;-67
2021/11/11 19:31:44;;;;;;;30.08;19.13;;;;;;;;;;6197664;28;20050;-67
2021/11/11 19:34:50;;;;;;;30.90;19.67;;;;;;;;;;6217591;28;20046;-67
2021/11/11 19:38:02;;;;;;;36.20;20.63;;;;;;;;;;6203304;28;20062;-65
2021/11/11 19:41:28;;;;;;;30.67;19.30;;;;;;;;;;6204587;28;20389;-67
2021/11/11 19:48:07;;;;;;;32.67;20.27;;;;;;;;;;6200783;28;20501;-68
2021/11/11 19:51:23;;;;;;;32.85;20.17;;;;;;;;;;6200990;28;20534;-66
2021/11/11 19:54:44;;;;;;;31.42;19.70;;;;;;;;;;6214644;28;20045;-66
2021/11/11 19:58:03;;;;;;;30.58;18.63;;;;;;;;;;6199025;28;20050;-66
2021/11/11 20:01:21;;;;;;;30.75;19.40;;;;;;;;;;6195383;28;20038;-66
2021/11/11 20:07:55;;;;;;;31.00;19.02;;;;;;;;;;6203014;28;20312;-66
2021/11/11 20:11:00;;;;;;;33.05;20.70;;;;;;;;;;6205808;28;20125;-66
2021/11/11 20:41:06;;;;;;;32.05;19.52;;;;;;;;;;6210034;28;21003;-66
2021/11/11 20:44:28;;;;;;;31.70;19.42;;;;;;;;;;6216731;28;20050;-66
2021/11/11 20:58:05;;;;;;;36.95;22.73;;;;;;;;;;6176172;28;20058;-65
2021/11/11 21:01:10;;;;;;;34.03;21.45;;;;;;;;;;6197258;28;20045;-65
2021/11/11 21:04:13;;;;;;;38.38;23.02;;;;;;;;;;6218964;28;20705;-65
2021/11/11 21:07:17;;;;;;;35.85;23.23;;;;;;;;;;6209444;28;20046;-65
2021/11/11 21:13:43;;;;;;;36.72;22.65;;;;;;;;;;6213801;28;20076;-64
2021/11/11 21:20:08;;;;;;;35.67;22.88;;;;;;;;;;6209210;28;20053;-65
2021/11/11 21:23:10;;;;;;;37.67;22.45;;;;;;;;;;6207285;28;20172;-65
2021/11/11 21:26:11;;;;;;;33.35;21.48;;;;;;;;;;6207586;28;20078;-66
2021/11/11 21:29:13;;;;;;;35.17;21.60;;;;;;;;;;6216933;28;20473;-65
2021/11/11 21:32:15;;;;;;;35.17;22.40;;;;;;;;;;6197136;28;20046;-66
2021/11/11 21:35:25;;;;;;;35.15;21.98;;;;;;;;;;6205726;28;20053;-65
2021/11/11 21:38:31;;;;;;;36.80;22.58;;;;;;;;;;6213797;28;20042;-67
2021/11/11 21:41:36;;;;;;;33.67;20.00;;;;;;;;;;6207451;28;20046;-67
2021/11/11 21:44:38;;;;;;;37.45;21.77;;;;;;;;;;6216049;28;20058;-65
2021/11/11 21:47:40;;;;;;;31.67;21.40;;;;;;;;;;6192077;28;20049;-65
2021/11/11 21:50:45;;;;;;;33.60;20.60;;;;;;;;;;6205986;28;20181;-65
2021/11/11 21:53:49;;;;;;;35.80;21.10;;;;;;;;;;6214600;28;20057;-65
2021/11/11 21:56:54;;;;;;;34.00;20.42;;;;;;;;;;6207653;28;20042;-65
2021/11/11 22:00:08;;;;;;;36.05;21.35;;;;;;;;;;6216870;28;20509;-65
2021/11/11 22:03:16;;;;;;;34.63;20.83;;;;;;;;;;6201033;28;20042;-67
2021/11/11 22:06:42;;;;;;;35.30;21.10;;;;;;;;;;6199191;28;20177;-66
2021/11/11 22:23:04;;;;;;;33.13;21.38;;;;;;;;;;6202198;28;20046;-67
2021/11/11 22:26:10;;;;;;;37.55;21.52;;;;;;;;;;6208010;28;20135;-66